createdAt,value
2022-11-08T00:00:01.881Z,7.33
2022-11-08T00:01:01.831Z,7.39
2022-11-08T00:02:01.907Z,7.32
2022-11-08T00:03:01.832Z,7.29
2022-11-08T00:04:01.717Z,7.36
2022-11-08T00:05:01.675Z,7.32
2022-11-08T00:06:01.612Z,7.36
2022-11-08T00:07:01.559Z,7.36
2022-11-08T00:08:01.506Z,7.41
2022-11-08T00:09:01.459Z,7.39
2022-11-08T00:10:01.416Z,7.43
2022-11-08T00:11:01.394Z,7.39
2022-11-08T00:12:01.326Z,7.41
2022-11-08T00:13:01.273Z,7.41
2022-11-08T00:14:01.237Z,7.44
2022-11-08T00:15:01.183Z,7.43
2022-11-08T00:16:01.139Z,7.44
2022-11-08T00:17:01.130Z,7.48
2022-11-08T00:18:01.041Z,7.41
2022-11-08T00:19:00.994Z,7.55
2022-11-08T00:20:00.990Z,7.44
2022-11-08T00:21:00.905Z,7.55
2022-11-08T00:22:00.856Z,7.53
2022-11-08T00:23:00.807Z,7.56
2022-11-08T00:24:00.768Z,7.48
2022-11-08T00:25:00.721Z,7.50
2022-11-08T00:26:00.691Z,7.53
2022-11-08T00:27:00.622Z,7.62
2022-11-08T00:28:00.584Z,7.59
2022-11-08T00:29:00.531Z,7.47
2022-11-08T00:30:00.490Z,7.53
2022-11-08T00:31:00.442Z,7.59
2022-11-08T00:32:00.432Z,7.43
2022-11-08T00:33:00.348Z,7.47
2022-11-08T00:34:00.300Z,7.44
2022-11-08T00:35:00.258Z,7.53
2022-11-08T00:36:00.201Z,7.50
2022-11-08T00:37:00.157Z,7.50
2022-11-08T00:38:00.154Z,7.43
2022-11-08T00:39:00.123Z,7.46
2022-11-08T00:40:00.020Z,7.50
2022-11-08T00:40:59.973Z,7.50
2022-11-08T00:41:59.927Z,7.40
2022-11-08T00:42:59.880Z,7.44
2022-11-08T00:43:59.832Z,7.39
2022-11-08T00:44:59.823Z,7.43
2022-11-08T00:45:59.749Z,7.36
2022-11-08T00:46:59.740Z,7.33
2022-11-08T00:47:59.647Z,7.39
2022-11-08T00:48:59.603Z,7.44
2022-11-08T00:49:59.554Z,7.41
2022-11-08T00:50:59.504Z,7.43
2022-11-08T00:51:59.465Z,7.41
2022-11-08T00:52:59.443Z,7.46
2022-11-08T00:53:59.370Z,7.41
2022-11-08T00:54:59.321Z,7.41
2022-11-08T00:55:59.296Z,7.43
2022-11-08T00:56:59.230Z,7.32
2022-11-08T00:58:00.239Z,7.32
2022-11-08T00:58:59.134Z,7.43
2022-11-08T00:59:59.085Z,7.28
2022-11-08T01:00:59.110Z,7.25
2022-11-08T01:01:59.118Z,7.32
2022-11-08T01:02:58.952Z,7.33
2022-11-08T01:03:58.903Z,7.39
2022-11-08T01:04:58.854Z,7.31
2022-11-08T01:05:58.817Z,7.33
2022-11-08T01:06:58.768Z,7.28
2022-11-08T01:07:58.743Z,7.32
2022-11-08T01:08:58.669Z,7.23
2022-11-08T01:09:58.633Z,7.25
2022-11-08T01:10:58.579Z,7.21
2022-11-08T01:11:58.526Z,7.28
2022-11-08T01:12:58.484Z,7.23
2022-11-08T01:13:58.463Z,7.19
2022-11-08T01:14:58.433Z,7.21
2022-11-08T01:15:58.344Z,7.13
2022-11-08T01:16:58.301Z,7.05
2022-11-08T01:17:58.254Z,7.00
2022-11-08T01:18:58.230Z,7.05
2022-11-08T01:19:58.155Z,7.00
2022-11-08T01:20:58.108Z,7.03
2022-11-08T01:21:58.062Z,7.00
2022-11-08T01:22:58.020Z,7.03
2022-11-08T01:23:57.973Z,6.97
2022-11-08T01:24:57.947Z,6.93
2022-11-08T01:25:57.874Z,6.95
2022-11-08T01:26:57.826Z,6.87
2022-11-08T01:27:57.781Z,6.87
2022-11-08T01:28:57.758Z,6.90
2022-11-08T01:29:57.711Z,6.86
2022-11-08T01:30:57.667Z,6.80
2022-11-08T01:31:57.619Z,6.82
2022-11-08T01:32:57.552Z,6.72
2022-11-08T01:33:57.507Z,6.80
2022-11-08T01:34:57.455Z,6.70
2022-11-08T01:35:57.440Z,6.59
2022-11-08T01:36:57.365Z,6.50
2022-11-08T01:37:57.314Z,6.47
2022-11-08T01:38:57.268Z,6.46
2022-11-08T01:39:57.217Z,6.41
2022-11-08T01:40:57.195Z,6.44
2022-11-08T01:41:57.122Z,6.35
2022-11-08T01:42:57.084Z,6.36
2022-11-08T01:43:57.031Z,6.35
2022-11-08T01:44:56.986Z,6.34
2022-11-08T01:45:56.960Z,6.29
2022-11-08T01:46:56.891Z,6.31
2022-11-08T01:47:56.846Z,6.26
2022-11-08T01:48:56.797Z,6.22
2022-11-08T01:49:56.756Z,6.28
2022-11-08T01:50:56.699Z,6.22
2022-11-08T01:51:56.685Z,6.28
2022-11-08T01:52:56.611Z,6.26
2022-11-08T01:53:56.559Z,6.25
2022-11-08T01:54:56.518Z,6.15
2022-11-08T01:55:56.465Z,6.22
2022-11-08T01:56:56.427Z,6.25
2022-11-08T01:57:56.411Z,6.22
2022-11-08T01:58:56.329Z,6.32
2022-11-08T01:59:56.274Z,6.29
2022-11-08T02:00:56.287Z,6.20
2022-11-08T02:01:56.317Z,6.34
2022-11-08T02:02:56.138Z,6.32
2022-11-08T02:03:56.129Z,6.32
2022-11-08T02:04:56.046Z,6.36
2022-11-08T02:05:55.995Z,6.32
2022-11-08T02:06:55.951Z,6.35
2022-11-08T02:07:55.904Z,6.32
2022-11-08T02:08:55.878Z,6.43
2022-11-08T02:09:55.811Z,6.34
2022-11-08T02:10:55.761Z,6.35
2022-11-08T02:11:55.711Z,6.39
2022-11-08T02:12:55.701Z,6.44
2022-11-08T02:13:55.645Z,6.46
2022-11-08T02:14:55.578Z,6.50
2022-11-08T02:15:55.522Z,6.52
2022-11-08T02:16:55.477Z,6.56
2022-11-08T02:17:55.433Z,6.54
2022-11-08T02:18:55.419Z,6.54
2022-11-08T02:19:55.336Z,6.57
2022-11-08T02:20:55.291Z,6.64
2022-11-08T02:21:55.244Z,6.59
2022-11-08T02:22:55.198Z,6.60
2022-11-08T02:23:55.155Z,6.52
2022-11-08T02:24:55.134Z,6.56
2022-11-08T02:25:55.059Z,6.64
2022-11-08T02:26:55.051Z,6.59
2022-11-08T02:27:54.962Z,6.56
2022-11-08T02:28:54.944Z,6.52
2022-11-08T02:29:54.871Z,6.59
2022-11-08T02:30:54.817Z,6.59
2022-11-08T02:31:54.803Z,6.47
2022-11-08T02:32:54.730Z,6.54
2022-11-08T02:34:04.195Z,6.56
2022-11-08T02:34:54.655Z,6.57
2022-11-08T02:35:54.589Z,6.53
2022-11-08T02:36:54.541Z,6.49
2022-11-08T02:37:54.527Z,6.44
2022-11-08T02:38:54.446Z,6.53
2022-11-08T02:39:54.398Z,6.49
2022-11-08T02:40:54.350Z,6.50
2022-11-08T02:41:54.330Z,6.46
2022-11-08T02:42:54.257Z,6.46
2022-11-08T02:43:54.232Z,6.46
2022-11-08T02:44:54.164Z,6.46
2022-11-08T02:45:54.120Z,6.46
2022-11-08T02:46:54.069Z,6.43
2022-11-08T02:47:54.048Z,6.46
2022-11-08T02:48:53.973Z,6.46
2022-11-08T02:49:53.927Z,6.47
2022-11-08T02:50:53.900Z,6.47
2022-11-08T02:51:53.835Z,6.39
2022-11-08T02:52:53.785Z,6.47
2022-11-08T02:53:53.745Z,6.38
2022-11-08T02:54:53.689Z,6.50
2022-11-08T02:55:53.644Z,6.44
2022-11-08T02:56:53.621Z,6.49
2022-11-08T02:57:53.550Z,6.50
2022-11-08T02:58:53.504Z,6.44
2022-11-08T02:59:53.457Z,6.47
2022-11-08T03:00:53.491Z,6.41
2022-11-08T03:01:53.489Z,6.36
2022-11-08T03:02:53.418Z,6.39
2022-11-08T03:03:53.266Z,6.43
2022-11-08T03:04:53.224Z,6.43
2022-11-08T03:05:53.173Z,6.39
2022-11-08T03:06:53.140Z,6.35
2022-11-08T03:07:53.084Z,6.38
2022-11-08T03:08:53.066Z,6.39
2022-11-08T03:09:52.984Z,6.35
2022-11-08T03:10:52.943Z,6.31
2022-11-08T03:11:52.891Z,6.31
2022-11-08T03:12:52.851Z,6.34
2022-11-08T03:13:52.822Z,6.44
2022-11-08T03:14:52.757Z,6.34
2022-11-08T03:15:52.707Z,6.41
2022-11-08T03:16:52.660Z,6.41
2022-11-08T03:17:52.614Z,6.35
2022-11-08T03:18:52.583Z,6.35
2022-11-08T03:19:52.519Z,6.34
2022-11-08T03:20:52.470Z,6.29
2022-11-08T03:21:52.423Z,6.29
2022-11-08T03:22:52.374Z,6.28
2022-11-08T03:23:52.341Z,6.22
2022-11-08T03:24:52.307Z,6.26
2022-11-08T03:25:52.250Z,6.32
2022-11-08T03:26:52.189Z,6.28
2022-11-08T03:27:52.149Z,6.29
2022-11-08T03:28:52.123Z,6.35
2022-11-08T03:29:52.057Z,6.28
2022-11-08T03:30:51.996Z,6.26
2022-11-08T03:31:51.976Z,6.25
2022-11-08T03:32:51.903Z,6.28
2022-11-08T03:33:51.860Z,6.31
2022-11-08T03:34:51.809Z,6.19
2022-11-08T03:35:51.789Z,6.17
2022-11-08T03:36:51.723Z,6.25
2022-11-08T03:37:51.675Z,6.10
2022-11-08T03:38:51.628Z,6.07
2022-11-08T03:39:51.574Z,6.13
2022-11-08T03:40:51.525Z,6.15
2022-11-08T03:41:51.547Z,6.25
2022-11-08T03:42:51.432Z,6.19
2022-11-08T03:43:51.385Z,6.09
2022-11-08T03:44:51.344Z,6.19
2022-11-08T03:45:51.290Z,6.22
2022-11-08T03:46:51.248Z,6.15
2022-11-08T03:47:51.228Z,6.07
2022-11-08T03:48:51.158Z,6.22
2022-11-08T03:49:51.103Z,6.15
2022-11-08T03:50:51.056Z,6.13
2022-11-08T03:51:51.016Z,6.13
2022-11-08T03:52:50.999Z,6.19
2022-11-08T03:53:50.918Z,6.09
2022-11-08T03:54:50.890Z,6.15
2022-11-08T03:55:50.824Z,6.12
2022-11-08T03:56:50.776Z,6.16
2022-11-08T03:57:50.756Z,6.15
2022-11-08T03:58:50.684Z,6.13
2022-11-08T03:59:50.633Z,6.09
2022-11-08T04:00:50.617Z,6.15
2022-11-08T04:01:50.783Z,6.10
2022-11-08T04:02:50.491Z,6.09
2022-11-08T04:03:50.446Z,6.22
2022-11-08T04:04:50.396Z,6.16
2022-11-08T04:05:50.353Z,6.20
2022-11-08T04:06:50.303Z,6.16
2022-11-08T04:07:50.283Z,6.25
2022-11-08T04:08:50.208Z,6.17
2022-11-08T04:09:50.161Z,6.25
2022-11-08T04:10:50.115Z,6.19
2022-11-08T04:11:50.065Z,6.22
2022-11-08T04:12:50.021Z,6.09
2022-11-08T04:13:49.995Z,6.16
2022-11-08T04:14:49.923Z,6.26
2022-11-08T04:15:49.938Z,6.17
2022-11-08T04:16:49.959Z,6.13
2022-11-08T04:17:49.796Z,6.12
2022-11-08T04:18:49.735Z,6.13
2022-11-08T04:19:49.691Z,6.13
2022-11-08T04:20:49.644Z,6.10
2022-11-08T04:21:49.595Z,6.13
2022-11-08T04:22:49.582Z,6.17
2022-11-08T04:23:49.505Z,6.12
2022-11-08T04:24:49.480Z,6.10
2022-11-08T04:25:49.411Z,6.12
2022-11-08T04:26:49.366Z,6.15
2022-11-08T04:27:49.311Z,6.09
2022-11-08T04:28:49.268Z,6.07
2022-11-08T04:29:49.220Z,6.07
2022-11-08T04:30:49.193Z,6.16
2022-11-08T04:31:49.125Z,6.19
2022-11-08T04:32:49.080Z,6.13
2022-11-08T04:33:49.062Z,6.19
2022-11-08T04:34:48.983Z,6.10
2022-11-08T04:35:48.936Z,6.16
2022-11-08T04:36:48.906Z,6.15
2022-11-08T04:37:48.846Z,6.19
2022-11-08T04:38:48.795Z,6.15
2022-11-08T04:39:48.751Z,6.17
2022-11-08T04:40:48.705Z,6.16
2022-11-08T04:41:48.656Z,6.10
2022-11-08T04:42:48.635Z,6.13
2022-11-08T04:43:48.558Z,6.20
2022-11-08T04:44:48.511Z,6.19
2022-11-08T04:45:48.465Z,6.16
2022-11-08T04:46:48.474Z,6.16
2022-11-08T04:47:48.637Z,6.09
2022-11-08T04:48:48.325Z,6.10
2022-11-08T04:49:48.277Z,6.10
2022-11-08T04:50:48.231Z,6.09
2022-11-08T04:51:48.178Z,6.09
2022-11-08T04:52:48.158Z,6.01
2022-11-08T04:53:48.090Z,5.98
2022-11-08T04:54:48.042Z,5.98
2022-11-08T04:55:47.993Z,5.91
2022-11-08T04:56:47.946Z,5.95
2022-11-08T04:57:47.912Z,5.84
2022-11-08T04:58:47.855Z,5.92
2022-11-08T04:59:47.806Z,5.87
2022-11-08T05:00:47.761Z,5.76
2022-11-08T05:01:47.837Z,5.80
2022-11-08T05:02:47.729Z,5.76
2022-11-08T05:03:47.639Z,5.81
2022-11-08T05:04:47.566Z,5.69
2022-11-08T05:05:47.522Z,5.65
2022-11-08T05:06:47.476Z,5.65
2022-11-08T05:07:47.424Z,5.73
2022-11-08T05:08:47.383Z,5.70
2022-11-08T05:09:47.352Z,5.70
2022-11-08T05:10:47.284Z,5.73
2022-11-08T05:11:47.245Z,5.77
2022-11-08T05:12:47.189Z,5.73
2022-11-08T05:13:47.152Z,5.81
2022-11-08T05:14:47.100Z,5.74
2022-11-08T05:15:47.108Z,5.79
2022-11-08T05:16:47.004Z,5.84
2022-11-08T05:17:46.955Z,5.94
2022-11-08T05:18:46.909Z,5.90
2022-11-08T05:19:46.863Z,5.97
2022-11-08T05:20:46.812Z,5.99
2022-11-08T05:21:46.898Z,6.01
2022-11-08T05:22:46.718Z,6.06
2022-11-08T05:23:46.672Z,6.01
2022-11-08T05:24:46.622Z,5.98
2022-11-08T05:25:46.574Z,5.97
2022-11-08T05:26:46.532Z,5.94
2022-11-08T05:27:46.503Z,5.90
2022-11-08T05:28:46.432Z,5.91
2022-11-08T05:29:46.390Z,5.92
2022-11-08T05:30:46.342Z,5.76
2022-11-08T05:31:46.319Z,5.67
2022-11-08T05:32:46.244Z,5.65
2022-11-08T05:33:46.195Z,5.67
2022-11-08T05:34:46.169Z,5.64
2022-11-08T05:35:46.099Z,5.69
2022-11-08T05:36:46.055Z,5.69
2022-11-08T05:37:46.005Z,5.54
2022-11-08T05:38:45.966Z,5.62
2022-11-08T05:39:45.910Z,5.61
2022-11-08T05:40:45.886Z,5.62
2022-11-08T05:41:45.843Z,5.56
2022-11-08T05:42:45.773Z,5.61
2022-11-08T05:43:45.728Z,5.67
2022-11-08T05:44:45.680Z,5.58
2022-11-08T05:45:45.625Z,5.67
2022-11-08T05:46:45.600Z,5.64
2022-11-08T05:47:45.531Z,5.65
2022-11-08T05:48:45.513Z,5.65
2022-11-08T05:49:45.439Z,5.56
2022-11-08T05:50:45.390Z,5.58
2022-11-08T05:51:45.368Z,5.65
2022-11-08T05:52:45.294Z,5.65
2022-11-08T05:53:45.249Z,5.62
2022-11-08T05:54:45.202Z,5.76
2022-11-08T05:55:45.179Z,5.67
2022-11-08T05:56:45.106Z,5.62
2022-11-08T05:57:45.063Z,5.65
2022-11-08T05:58:45.009Z,5.74
2022-11-08T05:59:45.002Z,5.69
2022-11-08T06:03:47.355Z,5.65
2022-11-08T06:04:47.315Z,5.65
2022-11-08T06:05:47.236Z,5.62
2022-11-08T06:06:47.180Z,5.62
2022-11-08T06:07:47.132Z,5.67
2022-11-08T06:08:50.279Z,5.64
2022-11-08T06:09:47.035Z,5.62
2022-11-08T06:10:47.017Z,5.62
2022-11-08T06:11:46.971Z,5.67
2022-11-08T06:12:46.892Z,5.65
2022-11-08T06:13:46.846Z,5.65
2022-11-08T06:14:46.799Z,5.69
2022-11-08T06:15:46.750Z,5.72
2022-11-08T06:16:46.703Z,5.69
2022-11-08T06:17:46.672Z,5.72
2022-11-08T06:18:46.605Z,5.79
2022-11-08T06:19:46.565Z,5.79
2022-11-08T06:20:46.513Z,5.80
2022-11-08T06:21:46.464Z,5.76
2022-11-08T06:22:46.418Z,5.91
2022-11-08T06:23:46.392Z,5.95
2022-11-08T06:24:46.324Z,5.87
2022-11-08T06:25:47.634Z,5.90
2022-11-08T06:26:46.258Z,5.98
2022-11-08T06:27:46.181Z,6.07
2022-11-08T06:28:46.167Z,6.10
2022-11-08T06:29:46.086Z,6.12
2022-11-08T06:30:46.038Z,6.15
2022-11-08T06:31:46.015Z,6.20
2022-11-08T06:32:45.943Z,6.15
2022-11-08T06:33:45.896Z,6.15
2022-11-08T06:34:45.861Z,6.15
2022-11-08T06:35:45.800Z,6.26
2022-11-08T06:36:45.760Z,6.26
2022-11-08T06:37:45.715Z,6.28
2022-11-08T06:38:45.661Z,6.31
2022-11-08T06:39:45.641Z,6.32
2022-11-08T06:40:45.569Z,6.44
2022-11-08T06:41:45.542Z,6.43
2022-11-08T06:42:45.475Z,6.46
2022-11-08T06:43:45.429Z,6.43
2022-11-08T06:44:45.382Z,6.47
2022-11-08T06:45:45.343Z,6.52
2022-11-08T06:46:45.283Z,6.47
2022-11-08T06:47:45.266Z,6.46
2022-11-08T06:48:45.194Z,6.50
2022-11-08T06:49:45.144Z,6.54
2022-11-08T06:50:45.122Z,6.49
2022-11-08T06:51:45.070Z,6.43
2022-11-08T06:52:45.002Z,6.50
2022-11-08T06:53:44.952Z,6.50
2022-11-08T06:54:44.929Z,6.52
2022-11-08T06:55:44.859Z,6.47
2022-11-08T06:56:44.811Z,6.49
2022-11-08T06:57:44.764Z,6.46
2022-11-08T06:58:44.726Z,6.49
2022-11-08T06:59:44.671Z,6.43
2022-11-08T07:00:44.649Z,6.52
2022-11-08T07:01:45.810Z,6.47
2022-11-08T07:02:44.733Z,6.53
2022-11-08T07:03:44.484Z,6.59
2022-11-08T07:04:44.457Z,6.57
2022-11-08T07:05:44.392Z,6.65
2022-11-08T07:06:44.347Z,6.68
2022-11-08T07:07:44.298Z,6.78
2022-11-08T07:08:44.248Z,6.80
2022-11-08T07:09:44.202Z,6.82
2022-11-08T07:10:44.195Z,6.80
2022-11-08T07:11:44.107Z,6.95
2022-11-08T07:12:44.060Z,6.86
2022-11-08T07:13:44.012Z,6.96
2022-11-08T07:14:44.059Z,7.04
2022-11-08T07:15:43.919Z,7.08
2022-11-08T07:16:43.873Z,7.19
2022-11-08T07:17:43.825Z,7.25
2022-11-08T07:18:43.858Z,7.31
2022-11-08T07:19:43.733Z,7.37
2022-11-08T07:20:43.713Z,7.29
2022-11-08T07:21:43.642Z,7.41
2022-11-08T07:22:43.621Z,7.46
2022-11-08T07:23:43.547Z,7.41
2022-11-08T07:24:43.522Z,7.47
2022-11-08T07:25:43.459Z,7.58
2022-11-08T07:26:43.430Z,7.53
2022-11-08T07:27:43.357Z,7.58
2022-11-08T07:28:43.313Z,7.59
2022-11-08T07:29:43.265Z,7.67
2022-11-08T07:30:43.249Z,7.80
2022-11-08T07:31:43.202Z,7.69
2022-11-08T07:32:43.124Z,7.93
2022-11-08T07:33:43.088Z,7.85
2022-11-08T07:34:43.050Z,7.93
2022-11-08T07:35:42.990Z,7.93
2022-11-08T07:36:42.941Z,8.05
2022-11-08T07:37:42.897Z,8.17
2022-11-08T07:38:42.853Z,8.23
2022-11-08T07:39:42.800Z,8.20
2022-11-08T07:40:42.802Z,8.35
2022-11-08T07:41:42.711Z,8.39
2022-11-08T07:43:09.929Z,8.49
2022-11-08T07:43:42.617Z,8.50
2022-11-08T07:44:42.573Z,8.63
2022-11-08T07:45:42.524Z,8.77
2022-11-08T07:46:42.555Z,8.69
2022-11-08T07:47:42.433Z,8.79
2022-11-08T07:48:42.390Z,8.87
2022-11-08T07:49:42.345Z,9.03
2022-11-08T07:50:42.529Z,9.02
2022-11-08T07:51:42.252Z,8.97
2022-11-08T07:52:42.219Z,9.12
2022-11-08T07:53:42.165Z,9.16
2022-11-08T07:54:42.116Z,9.19
2022-11-08T07:55:42.064Z,9.30
2022-11-08T07:56:42.028Z,9.40
2022-11-08T07:57:41.978Z,9.36
2022-11-08T07:58:41.948Z,9.44
2022-11-08T07:59:41.881Z,9.52
2022-11-08T08:00:41.841Z,9.47
2022-11-08T08:01:41.850Z,9.58
2022-11-08T08:02:41.780Z,9.54
2022-11-08T08:03:41.714Z,9.62
2022-11-08T08:04:41.678Z,9.54
2022-11-08T08:05:41.607Z,9.62
2022-11-08T08:06:41.562Z,9.63
2022-11-08T08:07:41.520Z,9.66
2022-11-08T08:08:41.474Z,9.54
2022-11-08T08:09:41.428Z,9.55
2022-11-08T08:10:41.420Z,9.66
2022-11-08T08:11:41.340Z,9.74
2022-11-08T08:12:41.298Z,9.66
2022-11-08T08:13:41.250Z,9.66
2022-11-08T08:14:41.201Z,9.74
2022-11-08T08:15:41.177Z,9.88
2022-11-08T08:16:41.104Z,9.84
2022-11-08T08:17:41.062Z,9.88
2022-11-08T08:18:41.041Z,9.95
2022-11-08T08:19:40.973Z,9.94
2022-11-08T08:20:40.925Z,9.97
2022-11-08T08:21:40.882Z,10.05
2022-11-08T08:22:40.835Z,10.18
2022-11-08T08:23:40.814Z,10.17
2022-11-08T08:24:40.744Z,10.30
2022-11-08T08:25:40.703Z,10.38
2022-11-08T08:26:40.653Z,10.38
2022-11-08T08:27:40.607Z,10.43
2022-11-08T08:28:40.588Z,10.45
2022-11-08T08:29:40.513Z,10.61
2022-11-08T08:30:40.469Z,10.67
2022-11-08T08:31:40.529Z,10.79
2022-11-08T08:32:40.379Z,10.89
2022-11-08T08:33:40.720Z,11.02
2022-11-08T08:34:40.286Z,11.08
2022-11-08T08:35:40.247Z,11.12
2022-11-08T08:36:40.197Z,11.10
2022-11-08T08:37:40.179Z,11.22
2022-11-08T08:38:44.313Z,11.27
2022-11-08T08:39:40.064Z,11.30
2022-11-08T08:40:40.020Z,11.38
2022-11-08T08:41:39.980Z,11.38
2022-11-08T08:42:39.930Z,11.51
2022-11-08T08:43:39.906Z,11.56
2022-11-08T08:44:39.839Z,11.45
2022-11-08T08:45:39.799Z,11.59
2022-11-08T08:46:39.786Z,11.67
2022-11-08T08:47:39.724Z,11.70
2022-11-08T08:48:39.660Z,11.77
2022-11-08T08:49:39.615Z,11.89
2022-11-08T08:50:39.577Z,11.95
2022-11-08T08:51:39.526Z,12.11
2022-11-08T08:52:39.514Z,12.14
2022-11-08T08:53:39.437Z,12.26
2022-11-08T08:54:39.397Z,12.28
2022-11-08T08:55:39.348Z,12.29
2022-11-08T08:56:39.305Z,12.29
2022-11-08T08:57:39.298Z,12.28
2022-11-08T08:58:39.670Z,12.33
2022-11-08T09:01:39.130Z,12.45
2022-11-08T09:02:41.434Z,12.50
2022-11-08T09:03:39.009Z,12.47
2022-11-08T09:04:38.950Z,12.58
2022-11-08T09:05:38.904Z,12.63
2022-11-08T09:06:38.939Z,12.55
2022-11-08T09:07:38.818Z,12.58
2022-11-08T09:08:38.776Z,12.61
2022-11-08T09:09:38.755Z,12.65
2022-11-08T09:10:38.686Z,12.68
2022-11-08T09:11:38.646Z,12.70
2022-11-08T09:12:38.594Z,12.65
2022-11-08T09:13:38.549Z,12.78
2022-11-08T09:14:38.509Z,12.76
2022-11-08T09:15:38.479Z,12.83
2022-11-08T09:16:38.418Z,13.05
2022-11-08T09:17:38.375Z,13.36
2022-11-08T09:18:38.408Z,13.70
2022-11-08T09:19:38.286Z,13.91
2022-11-08T09:20:38.249Z,14.33
2022-11-08T09:21:38.285Z,14.56
2022-11-08T09:22:38.161Z,14.70
2022-11-08T09:23:38.117Z,14.79
2022-11-08T09:24:38.089Z,14.97
2022-11-08T09:25:38.029Z,15.15
2022-11-08T09:26:37.991Z,15.39
2022-11-08T09:27:37.944Z,15.55
2022-11-08T09:28:37.901Z,15.75
2022-11-08T09:29:37.861Z,15.84
2022-11-08T09:30:37.837Z,16.06
2022-11-08T09:31:37.773Z,16.37
2022-11-08T09:32:59.740Z,16.72
2022-11-08T09:33:37.686Z,16.64
2022-11-08T09:34:37.652Z,16.73
2022-11-08T09:35:37.610Z,16.84
2022-11-08T09:36:37.767Z,16.86
2022-11-08T09:37:37.524Z,16.97
2022-11-08T09:38:37.480Z,17.09
2022-11-08T09:39:37.447Z,17.14
2022-11-08T09:40:37.424Z,17.34
2022-11-08T09:41:37.356Z,17.50
2022-11-08T09:42:37.354Z,17.65
2022-11-08T09:43:37.297Z,17.78
2022-11-08T09:44:37.337Z,17.88
2022-11-08T09:45:37.194Z,17.98
2022-11-08T09:46:37.149Z,18.00
2022-11-08T09:47:37.110Z,18.08
2022-11-08T09:48:37.069Z,18.09
2022-11-08T09:49:37.027Z,18.26
2022-11-08T09:50:37.011Z,18.27
2022-11-08T09:51:37.067Z,18.31
2022-11-08T09:52:36.907Z,18.42
2022-11-08T09:53:36.866Z,18.36
2022-11-08T09:54:36.827Z,18.45
2022-11-08T09:55:36.786Z,18.51
2022-11-08T09:56:36.760Z,18.64
2022-11-08T09:57:36.739Z,18.81
2022-11-08T09:58:36.661Z,18.97
2022-11-08T09:59:36.620Z,19.19
2022-11-08T10:00:36.581Z,19.27
2022-11-08T10:01:36.615Z,19.44
2022-11-08T10:02:36.498Z,19.60
2022-11-08T10:03:36.490Z,19.77
2022-11-08T10:04:36.422Z,20.04
2022-11-08T10:05:36.379Z,20.29
2022-11-08T10:06:36.362Z,20.48
2022-11-08T10:07:36.297Z,20.59
2022-11-08T10:08:36.282Z,20.53
2022-11-08T10:09:36.221Z,20.59
2022-11-08T10:10:36.181Z,20.59
2022-11-08T10:11:36.139Z,20.44
2022-11-08T10:12:36.104Z,20.33
2022-11-08T10:13:36.061Z,20.40
2022-11-08T10:14:39.925Z,20.26
2022-11-08T10:15:35.981Z,20.08
2022-11-08T10:16:35.946Z,19.94
2022-11-08T10:17:35.907Z,19.75
2022-11-08T10:18:35.865Z,19.63
2022-11-08T10:19:35.827Z,19.38
2022-11-08T10:20:35.807Z,19.23
2022-11-08T10:21:35.745Z,19.22
2022-11-08T10:22:35.704Z,18.98
2022-11-08T10:23:35.665Z,18.98
2022-11-08T10:24:35.621Z,18.85
2022-11-08T10:25:35.580Z,18.82
2022-11-08T10:26:35.556Z,18.82
2022-11-08T10:27:35.504Z,18.79
2022-11-08T10:28:35.456Z,18.78
2022-11-08T10:29:35.425Z,18.76
2022-11-08T10:30:35.381Z,18.67
2022-11-08T10:31:35.343Z,18.66
2022-11-08T10:32:35.326Z,18.57
2022-11-08T10:33:35.259Z,18.58
2022-11-08T10:34:35.214Z,18.49
2022-11-08T10:35:35.174Z,18.45
2022-11-08T10:36:35.133Z,18.43
2022-11-08T10:37:35.091Z,18.41
2022-11-08T10:38:35.090Z,18.23
2022-11-08T10:39:35.012Z,18.11
2022-11-08T10:40:34.966Z,17.98
2022-11-08T10:41:34.930Z,17.95
2022-11-08T10:42:34.889Z,17.93
2022-11-08T10:43:34.845Z,17.88
2022-11-08T10:44:34.849Z,17.95
2022-11-08T10:45:34.765Z,17.90
2022-11-08T10:46:34.719Z,17.86
2022-11-08T10:47:34.688Z,17.78
2022-11-08T10:48:34.644Z,17.78
2022-11-08T10:49:34.597Z,17.78
2022-11-08T10:50:34.582Z,17.60
2022-11-08T10:51:34.516Z,17.54
2022-11-08T10:52:34.475Z,17.57
2022-11-08T10:53:34.439Z,17.53
2022-11-08T10:54:34.407Z,17.57
2022-11-08T10:55:34.351Z,17.56
2022-11-08T10:56:36.929Z,17.46
2022-11-08T10:57:34.268Z,17.35
2022-11-08T10:58:34.228Z,17.32
2022-11-08T10:59:34.189Z,17.30
2022-11-08T11:00:34.165Z,17.31
2022-11-08T11:01:34.152Z,17.30
2022-11-08T11:02:34.066Z,17.20
2022-11-08T11:03:34.024Z,17.23
2022-11-08T11:04:33.975Z,17.28
2022-11-08T11:05:33.963Z,17.30
2022-11-08T11:06:33.977Z,17.28
2022-11-08T11:07:33.852Z,17.24
2022-11-08T11:08:33.821Z,17.28
2022-11-08T11:09:33.770Z,17.28
2022-11-08T11:10:33.730Z,17.32
2022-11-08T11:11:33.715Z,17.30
2022-11-08T11:12:33.644Z,17.28
2022-11-08T11:13:33.601Z,17.32
2022-11-08T11:14:33.567Z,17.28
2022-11-08T11:15:33.518Z,17.34
2022-11-08T11:16:33.477Z,17.41
2022-11-08T11:17:35.745Z,17.46
2022-11-08T11:18:33.401Z,17.50
2022-11-08T11:19:33.352Z,17.32
2022-11-08T11:20:33.311Z,17.27
2022-11-08T11:21:33.295Z,17.28
2022-11-08T11:22:33.230Z,17.24
2022-11-08T11:23:33.185Z,17.32
2022-11-08T11:24:33.143Z,17.27
2022-11-08T11:25:33.104Z,17.31
2022-11-08T11:26:33.060Z,17.28
2022-11-08T11:27:33.040Z,17.24
2022-11-08T11:28:32.977Z,17.22
2022-11-08T11:29:32.958Z,17.24
2022-11-08T11:30:32.895Z,17.27
2022-11-08T11:31:32.877Z,17.32
2022-11-08T11:32:32.809Z,17.19
2022-11-08T11:33:32.792Z,17.31
2022-11-08T11:34:32.725Z,17.34
2022-11-08T11:35:32.695Z,17.41
2022-11-08T11:36:32.639Z,17.49
2022-11-08T11:37:32.607Z,17.56
2022-11-08T11:38:32.561Z,17.65
2022-11-08T11:39:32.521Z,17.66
2022-11-08T11:40:32.476Z,17.75
2022-11-08T11:41:32.608Z,17.84
2022-11-08T11:42:45.846Z,17.97
2022-11-08T11:43:32.350Z,18.09
2022-11-08T11:44:32.611Z,18.16
2022-11-08T11:45:32.266Z,18.37
2022-11-08T11:46:33.014Z,18.48
2022-11-08T11:47:32.181Z,18.53
2022-11-08T11:48:32.145Z,18.51
2022-11-08T11:49:32.108Z,18.46
2022-11-08T11:50:32.109Z,18.45
2022-11-08T11:51:32.059Z,18.51
2022-11-08T11:52:32.013Z,18.58
2022-11-08T11:53:31.940Z,18.45
2022-11-08T11:54:31.894Z,18.45
2022-11-08T11:55:31.852Z,18.52
2022-11-08T11:56:31.810Z,18.71
2022-11-08T11:57:31.772Z,18.83
2022-11-08T11:58:31.759Z,19.16
2022-11-08T11:59:31.687Z,19.66
2022-11-08T12:00:31.649Z,20.21
2022-11-08T12:01:31.626Z,20.83
2022-11-08T12:02:31.588Z,21.48
2022-11-08T12:03:31.554Z,22.14
2022-11-08T12:04:31.489Z,22.59
2022-11-08T12:05:31.453Z,23.17
2022-11-08T12:06:31.438Z,23.71
2022-11-08T12:07:31.376Z,24.09
2022-11-08T12:08:31.359Z,24.63
2022-11-08T12:09:31.300Z,25.01
2022-11-08T12:10:31.265Z,25.37
2022-11-08T12:11:31.229Z,25.88
2022-11-08T12:12:31.192Z,26.15
2022-11-08T12:13:31.157Z,26.60
2022-11-08T12:14:31.137Z,26.85
2022-11-08T12:15:31.109Z,27.11
2022-11-08T12:16:31.053Z,27.43
2022-11-08T12:17:31.017Z,27.67
2022-11-08T12:18:42.808Z,28.09
2022-11-08T12:19:30.947Z,28.38
2022-11-08T12:20:30.941Z,28.71
2022-11-08T12:21:30.901Z,29.03
2022-11-08T12:22:30.871Z,29.32
2022-11-08T12:23:30.811Z,29.68
2022-11-08T12:24:30.777Z,29.99
2022-11-08T12:25:30.768Z,30.21
2022-11-08T12:26:30.710Z,30.43
2022-11-08T12:27:30.678Z,30.73
2022-11-08T12:28:30.645Z,30.86
2022-11-08T12:29:30.613Z,31.02
2022-11-08T12:30:30.583Z,31.05
2022-11-08T12:31:30.567Z,31.22
2022-11-08T12:32:30.540Z,31.07
2022-11-08T12:33:30.488Z,31.10
2022-11-08T12:34:30.452Z,31.13
2022-11-08T12:35:30.439Z,30.92
2022-11-08T12:36:30.384Z,30.77
2022-11-08T12:37:30.356Z,30.62
2022-11-08T12:38:30.319Z,30.59
2022-11-08T12:39:30.292Z,30.40
2022-11-08T12:40:30.256Z,30.43
2022-11-08T12:41:30.272Z,30.27
2022-11-08T12:42:30.193Z,30.13
2022-11-08T12:43:30.153Z,30.06
2022-11-08T12:44:30.125Z,30.14
2022-11-08T12:45:30.092Z,29.94
2022-11-08T12:46:30.056Z,29.86
2022-11-08T12:47:30.054Z,29.43
2022-11-08T12:48:29.994Z,29.31
2022-11-08T12:49:29.960Z,29.37
2022-11-08T12:50:29.923Z,29.25
2022-11-08T12:51:29.891Z,29.05
2022-11-08T12:52:29.859Z,28.72
2022-11-08T12:53:29.847Z,28.70
2022-11-08T12:54:29.794Z,28.75
2022-11-08T12:55:29.756Z,28.70
2022-11-08T12:56:29.730Z,28.75
2022-11-08T12:57:29.695Z,28.92
2022-11-08T12:58:33.959Z,28.97
2022-11-08T12:59:29.681Z,28.90
2022-11-08T13:00:29.585Z,28.62
2022-11-08T13:01:29.599Z,28.47
2022-11-08T13:02:29.523Z,28.62
2022-11-08T13:03:29.488Z,28.67
2022-11-08T13:04:29.458Z,28.77
2022-11-08T13:05:29.457Z,28.87
2022-11-08T13:06:29.422Z,28.96
2022-11-08T13:07:29.351Z,29.00
2022-11-08T13:08:29.315Z,29.02
2022-11-08T13:09:29.284Z,29.07
2022-11-08T13:10:29.250Z,28.80
2022-11-08T13:11:29.242Z,28.71
2022-11-08T13:12:29.181Z,28.65